sensor_id;sensor_type;location;lat;lon;timestamp;temperature;humidity
7159;DHT22;63175;52.374;13.132;2024-02-23T00:02:11;10.90;99.90
7159;DHT22;63175;52.374;13.132;2024-02-23T00:04:38;10.90;99.90
7159;DHT22;63175;52.374;13.132;2024-02-23T00:07:06;10.90;99.90
7159;DHT22;63175;52.374;13.132;2024-02-23T00:09:33;11.00;99.90
7159;DHT22;63175;52.374;13.132;2024-02-23T00:12:00;10.90;99.90
7159;DHT22;63175;52.374;13.132;2024-02-23T00:14:27;10.90;99.90
7159;DHT22;63175;52.374;13.132;2024-02-23T00:16:56;10.90;99.90
7159;DHT22;63175;52.374;13.132;2024-02-23T00:19:25;10.90;99.90
7159;DHT22;63175;52.374;13.132;2024-02-23T00:21:52;10.90;99.90
7159;DHT22;63175;52.374;13.132;2024-02-23T00:24:20;10.90;99.90
7159;DHT22;63175;52.374;13.132;2024-02-23T00:26:48;11.00;99.90
7159;DHT22;63175;52.374;13.132;2024-02-23T00:29:16;11.00;99.90
7159;DHT22;63175;52.374;13.132;2024-02-23T00:31:43;11.00;99.90
7159;DHT22;63175;52.374;13.132;2024-02-23T00:34:11;11.00;99.90
7159;DHT22;63175;52.374;13.132;2024-02-23T00:36:39;11.00;99.90
7159;DHT22;63175;52.374;13.132;2024-02-23T00:39:07;11.00;99.90
7159;DHT22;63175;52.374;13.132;2024-02-23T00:41:35;11.00;99.90
7159;DHT22;63175;52.374;13.132;2024-02-23T00:44:03;11.00;99.90
7159;DHT22;63175;52.374;13.132;2024-02-23T00:46:30;11.00;99.90
7159;DHT22;63175;52.374;13.132;2024-02-23T00:48:57;11.00;99.90
7159;DHT22;63175;52.374;13.132;2024-02-23T00:51:24;11.00;99.90
7159;DHT22;63175;52.374;13.132;2024-02-23T00:53:52;11.10;99.90
7159;DHT22;63175;52.374;13.132;2024-02-23T00:56:19;11.10;99.90
7159;DHT22;63175;52.374;13.132;2024-02-23T00:58:47;11.10;99.90
7159;DHT22;63175;52.374;13.132;2024-02-23T01:01:14;11.10;99.90
7159;DHT22;63175;52.374;13.132;2024-02-23T01:03:41;11.20;99.90
7159;DHT22;63175;52.374;13.132;2024-02-23T01:06:08;11.20;99.90
7159;DHT22;63175;52.374;13.132;2024-02-23T01:08:35;11.20;99.90
7159;DHT22;63175;52.374;13.132;2024-02-23T01:11:02;11.20;99.90
7159;DHT22;63175;52.374;13.132;2024-02-23T01:13:29;11.20;99.90
7159;DHT22;63175;52.374;13.132;2024-02-23T01:15:57;11.20;99.90
7159;DHT22;63175;52.374;13.132;2024-02-23T01:18:24;11.30;99.90
7159;DHT22;63175;52.374;13.132;2024-02-23T01:20:51;11.30;99.90
7159;DHT22;63175;52.374;13.132;2024-02-23T01:23:18;11.30;99.90
7159;DHT22;63175;52.374;13.132;2024-02-23T01:25:45;11.30;99.90
7159;DHT22;63175;52.374;13.132;2024-02-23T01:28:12;11.30;99.90
7159;DHT22;63175;52.374;13.132;2024-02-23T01:30:38;11.40;99.90
7159;DHT22;63175;52.374;13.132;2024-02-23T01:33:07;11.40;99.90
7159;DHT22;63175;52.374;13.132;2024-02-23T01:35:34;11.40;99.90
7159;DHT22;63175;52.374;13.132;2024-02-23T01:38:02;11.40;99.90
7159;DHT22;63175;52.374;13.132;2024-02-23T01:40:28;11.50;99.90
7159;DHT22;63175;52.374;13.132;2024-02-23T01:43:02;11.50;99.90
7159;DHT22;63175;52.374;13.132;2024-02-23T01:45:30;11.50;99.90
7159;DHT22;63175;52.374;13.132;2024-02-23T01:47:57;11.50;99.90
7159;DHT22;63175;52.374;13.132;2024-02-23T01:50:25;11.60;99.90
7159;DHT22;63175;52.374;13.132;2024-02-23T01:52:54;11.50;99.90
7159;DHT22;63175;52.374;13.132;2024-02-23T01:55:21;11.50;99.90
7159;DHT22;63175;52.374;13.132;2024-02-23T01:57:48;11.50;99.90
7159;DHT22;63175;52.374;13.132;2024-02-23T02:00:17;11.50;99.90
7159;DHT22;63175;52.374;13.132;2024-02-23T02:02:44;11.50;99.90
7159;DHT22;63175;52.374;13.132;2024-02-23T02:05:12;11.40;99.90
7159;DHT22;63175;52.374;13.132;2024-02-23T02:07:40;11.40;99.90
7159;DHT22;63175;52.374;13.132;2024-02-23T02:10:09;11.30;99.90
7159;DHT22;63175;52.374;13.132;2024-02-23T02:12:36;11.20;99.90
7159;DHT22;63175;52.374;13.132;2024-02-23T02:15:04;11.20;99.90
7159;DHT22;63175;52.374;13.132;2024-02-23T02:17:31;11.10;99.90
7159;DHT22;63175;52.374;13.132;2024-02-23T02:19:59;11.00;99.90
7159;DHT22;63175;52.374;13.132;2024-02-23T02:22:31;11.00;99.90
7159;DHT22;63175;52.374;13.132;2024-02-23T02:24:59;10.90;99.90
7159;DHT22;63175;52.374;13.132;2024-02-23T02:27:26;10.90;99.90
7159;DHT22;63175;52.374;13.132;2024-02-23T02:29:53;10.90;99.90
7159;DHT22;63175;52.374;13.132;2024-02-23T02:32:20;10.80;99.90
7159;DHT22;63175;52.374;13.132;2024-02-23T02:34:47;10.80;99.90
7159;DHT22;63175;52.374;13.132;2024-02-23T02:37:13;10.80;99.90
7159;DHT22;63175;52.374;13.132;2024-02-23T02:39:40;10.70;99.90
7159;DHT22;63175;52.374;13.132;2024-02-23T02:42:09;10.70;99.90
7159;DHT22;63175;52.374;13.132;2024-02-23T02:44:36;10.70;99.90
7159;DHT22;63175;52.374;13.132;2024-02-23T02:47:03;10.70;99.90
7159;DHT22;63175;52.374;13.132;2024-02-23T02:49:29;10.60;99.90
7159;DHT22;63175;52.374;13.132;2024-02-23T02:51:56;10.60;99.90
7159;DHT22;63175;52.374;13.132;2024-02-23T02:54:23;10.50;99.90
7159;DHT22;63175;52.374;13.132;2024-02-23T02:56:50;10.50;99.90
7159;DHT22;63175;52.374;13.132;2024-02-23T02:59:21;10.50;99.90
7159;DHT22;63175;52.374;13.132;2024-02-23T03:01:47;10.40;99.90
7159;DHT22;63175;52.374;13.132;2024-02-23T03:04:14;10.40;99.90
7159;DHT22;63175;52.374;13.132;2024-02-23T03:06:41;10.40;99.90
7159;DHT22;63175;52.374;13.132;2024-02-23T03:09:08;10.40;99.90
7159;DHT22;63175;52.374;13.132;2024-02-23T03:11:36;10.30;99.90
7159;DHT22;63175;52.374;13.132;2024-02-23T03:14:03;10.30;99.90
7159;DHT22;63175;52.374;13.132;2024-02-23T03:16:31;10.30;99.90
7159;DHT22;63175;52.374;13.132;2024-02-23T03:18:59;10.30;99.90
7159;DHT22;63175;52.374;13.132;2024-02-23T03:21:26;10.20;99.90
7159;DHT22;63175;52.374;13.132;2024-02-23T03:23:53;10.20;99.90
7159;DHT22;63175;52.374;13.132;2024-02-23T03:26:20;10.20;99.90
7159;DHT22;63175;52.374;13.132;2024-02-23T03:28:47;10.20;99.90
7159;DHT22;63175;52.374;13.132;2024-02-23T03:31:14;10.20;99.90
7159;DHT22;63175;52.374;13.132;2024-02-23T03:33:43;10.20;99.90
7159;DHT22;63175;52.374;13.132;2024-02-23T03:36:09;10.10;99.90
7159;DHT22;63175;52.374;13.132;2024-02-23T03:38:36;10.10;99.90
7159;DHT22;63175;52.374;13.132;2024-02-23T03:41:03;10.10;99.90
7159;DHT22;63175;52.374;13.132;2024-02-23T03:43:32;10.20;99.90
7159;DHT22;63175;52.374;13.132;2024-02-23T03:45:59;10.10;99.90
7159;DHT22;63175;52.374;13.132;2024-02-23T03:48:26;10.10;99.90
7159;DHT22;63175;52.374;13.132;2024-02-23T03:50:54;10.10;99.90
7159;DHT22;63175;52.374;13.132;2024-02-23T03:53:21;10.10;99.90
7159;DHT22;63175;52.374;13.132;2024-02-23T03:55:48;10.10;99.90
7159;DHT22;63175;52.374;13.132;2024-02-23T03:58:15;10.10;99.90
7159;DHT22;63175;52.374;13.132;2024-02-23T04:00:42;10.20;99.90
7159;DHT22;63175;52.374;13.132;2024-02-23T04:03:09;10.20;99.90
7159;DHT22;63175;52.374;13.132;2024-02-23T04:05:36;10.10;99.90
7159;DHT22;63175;52.374;13.132;2024-02-23T04:08:05;10.10;99.90
7159;DHT22;63175;52.374;13.132;2024-02-23T04:10:32;10.10;99.90
7159;DHT22;63175;52.374;13.132;2024-02-23T04:12:59;10.10;99.90
7159;DHT22;63175;52.374;13.132;2024-02-23T04:15:26;10.00;99.90
7159;DHT22;63175;52.374;13.132;2024-02-23T04:17:53;9.90;99.90
7159;DHT22;63175;52.374;13.132;2024-02-23T04:20:20;9.90;99.90
7159;DHT22;63175;52.374;13.132;2024-02-23T04:22:47;9.90;99.90
7159;DHT22;63175;52.374;13.132;2024-02-23T04:25:15;9.80;99.90
7159;DHT22;63175;52.374;13.132;2024-02-23T04:27:42;9.80;99.90
7159;DHT22;63175;52.374;13.132;2024-02-23T04:30:12;9.70;99.90
7159;DHT22;63175;52.374;13.132;2024-02-23T04:32:39;9.70;99.90
7159;DHT22;63175;52.374;13.132;2024-02-23T04:35:06;9.70;99.90
7159;DHT22;63175;52.374;13.132;2024-02-23T04:37:33;9.70;99.90
7159;DHT22;63175;52.374;13.132;2024-02-23T04:40:00;9.60;99.90
7159;DHT22;63175;52.374;13.132;2024-02-23T04:42:28;9.60;99.90
7159;DHT22;63175;52.374;13.132;2024-02-23T04:44:55;9.60;99.90
7159;DHT22;63175;52.374;13.132;2024-02-23T04:47:22;9.60;99.90
7159;DHT22;63175;52.374;13.132;2024-02-23T04:49:49;9.60;99.90
7159;DHT22;63175;52.374;13.132;2024-02-23T04:52:15;9.50;99.90
7159;DHT22;63175;52.374;13.132;2024-02-23T04:54:43;9.50;99.90
7159;DHT22;63175;52.374;13.132;2024-02-23T04:57:09;9.50;99.90
7159;DHT22;63175;52.374;13.132;2024-02-23T04:59:38;9.50;99.90
7159;DHT22;63175;52.374;13.132;2024-02-23T05:02:04;9.40;99.90
7159;DHT22;63175;52.374;13.132;2024-02-23T05:04:31;9.40;99.90
7159;DHT22;63175;52.374;13.132;2024-02-23T05:06:58;9.40;99.90
7159;DHT22;63175;52.374;13.132;2024-02-23T05:09:27;9.30;99.90
7159;DHT22;63175;52.374;13.132;2024-02-23T05:11:54;9.30;99.90
7159;DHT22;63175;52.374;13.132;2024-02-23T05:14:20;9.20;99.90
7159;DHT22;63175;52.374;13.132;2024-02-23T05:16:47;9.20;99.80
7159;DHT22;63175;52.374;13.132;2024-02-23T05:19:14;9.10;99.80
7159;DHT22;63175;52.374;13.132;2024-02-23T05:21:42;9.10;99.90
7159;DHT22;63175;52.374;13.132;2024-02-23T05:24:11;9.10;99.90
7159;DHT22;63175;52.374;13.132;2024-02-23T05:26:38;9.00;99.90
7159;DHT22;63175;52.374;13.132;2024-02-23T05:29:05;9.00;99.90
7159;DHT22;63175;52.374;13.132;2024-02-23T05:31:44;8.90;99.90
7159;DHT22;63175;52.374;13.132;2024-02-23T05:34:13;8.90;99.90
7159;DHT22;63175;52.374;13.132;2024-02-23T05:36:40;8.80;99.90
7159;DHT22;63175;52.374;13.132;2024-02-23T05:39:07;8.70;99.90
7159;DHT22;63175;52.374;13.132;2024-02-23T05:41:35;8.70;99.90
7159;DHT22;63175;52.374;13.132;2024-02-23T05:44:02;8.70;99.60
7159;DHT22;63175;52.374;13.132;2024-02-23T05:46:31;8.60;99.30
7159;DHT22;63175;52.374;13.132;2024-02-23T05:48:58;8.60;99.50
7159;DHT22;63175;52.374;13.132;2024-02-23T05:51:27;8.50;99.40
7159;DHT22;63175;52.374;13.132;2024-02-23T05:53:55;8.50;99.40
7159;DHT22;63175;52.374;13.132;2024-02-23T05:56:22;8.50;99.10
7159;DHT22;63175;52.374;13.132;2024-02-23T05:58:50;8.40;98.90
7159;DHT22;63175;52.374;13.132;2024-02-23T06:01:17;8.40;99.10
7159;DHT22;63175;52.374;13.132;2024-02-23T06:03:44;8.30;99.20
7159;DHT22;63175;52.374;13.132;2024-02-23T06:07:04;8.40;99.30
7159;DHT22;63175;52.374;13.132;2024-02-23T06:09:31;8.40;99.70
7159;DHT22;63175;52.374;13.132;2024-02-23T06:11:57;8.40;99.90
7159;DHT22;63175;52.374;13.132;2024-02-23T06:14:24;8.40;99.90
7159;DHT22;63175;52.374;13.132;2024-02-23T06:16:51;8.40;99.90
7159;DHT22;63175;52.374;13.132;2024-02-23T06:19:18;8.30;99.90
7159;DHT22;63175;52.374;13.132;2024-02-23T06:21:47;8.30;99.90
7159;DHT22;63175;52.374;13.132;2024-02-23T06:24:16;8.30;99.90
7159;DHT22;63175;52.374;13.132;2024-02-23T06:26:43;8.30;99.90
7159;DHT22;63175;52.374;13.132;2024-02-23T06:29:11;8.30;99.90
7159;DHT22;63175;52.374;13.132;2024-02-23T06:31:39;8.30;99.90
7159;DHT22;63175;52.374;13.132;2024-02-23T06:34:07;8.30;99.90
7159;DHT22;63175;52.374;13.132;2024-02-23T06:36:34;8.30;99.90
7159;DHT22;63175;52.374;13.132;2024-02-23T06:39:01;8.30;99.90
7159;DHT22;63175;52.374;13.132;2024-02-23T06:41:29;8.30;99.90
7159;DHT22;63175;52.374;13.132;2024-02-23T06:43:56;8.30;99.90
7159;DHT22;63175;52.374;13.132;2024-02-23T06:46:23;8.30;99.90
7159;DHT22;63175;52.374;13.132;2024-02-23T06:48:50;8.30;99.90
7159;DHT22;63175;52.374;13.132;2024-02-23T06:51:17;8.40;99.90
7159;DHT22;63175;52.374;13.132;2024-02-23T06:53:46;8.50;99.90
7159;DHT22;63175;52.374;13.132;2024-02-23T06:56:12;8.50;99.90
7159;DHT22;63175;52.374;13.132;2024-02-23T06:58:41;8.60;99.90
7159;DHT22;63175;52.374;13.132;2024-02-23T07:01:07;8.70;99.90
7159;DHT22;63175;52.374;13.132;2024-02-23T07:03:38;8.70;99.90
7159;DHT22;63175;52.374;13.132;2024-02-23T07:06:06;8.70;99.90
7159;DHT22;63175;52.374;13.132;2024-02-23T07:08:32;8.70;99.90
7159;DHT22;63175;52.374;13.132;2024-02-23T07:10:59;8.70;99.90
7159;DHT22;63175;52.374;13.132;2024-02-23T07:13:26;8.70;99.90
7159;DHT22;63175;52.374;13.132;2024-02-23T07:15:54;8.70;99.90
7159;DHT22;63175;52.374;13.132;2024-02-23T07:18:21;8.70;99.90
7159;DHT22;63175;52.374;13.132;2024-02-23T07:20:48;8.70;99.90
7159;DHT22;63175;52.374;13.132;2024-02-23T07:23:15;8.70;99.90
7159;DHT22;63175;52.374;13.132;2024-02-23T07:25:42;8.70;99.90
7159;DHT22;63175;52.374;13.132;2024-02-23T07:28:09;8.70;99.90
7159;DHT22;63175;52.374;13.132;2024-02-23T07:30:36;8.70;99.90
7159;DHT22;63175;52.374;13.132;2024-02-23T07:33:04;8.70;99.90
7159;DHT22;63175;52.374;13.132;2024-02-23T07:35:31;8.80;99.90
7159;DHT22;63175;52.374;13.132;2024-02-23T07:37:58;8.80;99.90
7159;DHT22;63175;52.374;13.132;2024-02-23T07:40:25;8.90;99.90
7159;DHT22;63175;52.374;13.132;2024-02-23T07:42:52;8.90;99.90
7159;DHT22;63175;52.374;13.132;2024-02-23T07:45:19;9.00;99.90
7159;DHT22;63175;52.374;13.132;2024-02-23T07:47:46;8.90;99.90
7159;DHT22;63175;52.374;13.132;2024-02-23T07:50:14;9.00;99.90
7159;DHT22;63175;52.374;13.132;2024-02-23T07:52:41;9.10;99.90
7159;DHT22;63175;52.374;13.132;2024-02-23T07:55:08;9.20;99.90
7159;DHT22;63175;52.374;13.132;2024-02-23T07:57:36;9.50;99.90
7159;DHT22;63175;52.374;13.132;2024-02-23T08:00:06;9.70;99.90
7159;DHT22;63175;52.374;13.132;2024-02-23T08:02:35;10.00;99.90
7159;DHT22;63175;52.374;13.132;2024-02-23T08:05:02;10.50;99.80
7159;DHT22;63175;52.374;13.132;2024-02-23T08:07:30;11.10;99.50
7159;DHT22;63175;52.374;13.132;2024-02-23T08:09:57;11.50;98.60
7159;DHT22;63175;52.374;13.132;2024-02-23T08:12:24;11.80;97.70
7159;DHT22;63175;52.374;13.132;2024-02-23T08:14:51;12.00;96.90
7159;DHT22;63175;52.374;13.132;2024-02-23T08:17:18;12.20;95.70
7159;DHT22;63175;52.374;13.132;2024-02-23T08:19:46;12.10;94.10
7159;DHT22;63175;52.374;13.132;2024-02-23T08:22:13;12.00;94.00
7159;DHT22;63175;52.374;13.132;2024-02-23T08:24:41;11.70;93.70
7159;DHT22;63175;52.374;13.132;2024-02-23T08:27:08;11.50;93.80
7159;DHT22;63175;52.374;13.132;2024-02-23T08:29:37;11.40;93.70
7159;DHT22;63175;52.374;13.132;2024-02-23T08:32:05;11.20;94.00
7159;DHT22;63175;52.374;13.132;2024-02-23T08:34:32;11.10;94.00
7159;DHT22;63175;52.374;13.132;2024-02-23T08:36:59;11.00;94.50
7159;DHT22;63175;52.374;13.132;2024-02-23T08:39:27;10.90;94.60
7159;DHT22;63175;52.374;13.132;2024-02-23T08:41:55;10.90;94.90
7159;DHT22;63175;52.374;13.132;2024-02-23T08:44:22;10.90;95.20
7159;DHT22;63175;52.374;13.132;2024-02-23T08:46:49;10.80;95.00
7159;DHT22;63175;52.374;13.132;2024-02-23T08:49:16;10.70;93.80
7159;DHT22;63175;52.374;13.132;2024-02-23T08:51:43;10.70;94.80
7159;DHT22;63175;52.374;13.132;2024-02-23T08:54:09;10.70;94.90
7159;DHT22;63175;52.374;13.132;2024-02-23T08:56:39;10.80;95.00
7159;DHT22;63175;52.374;13.132;2024-02-23T08:59:09;10.80;95.00
7159;DHT22;63175;52.374;13.132;2024-02-23T09:01:36;11.00;94.20
7159;DHT22;63175;52.374;13.132;2024-02-23T09:04:03;11.10;94.40
7159;DHT22;63175;52.374;13.132;2024-02-23T09:06:30;11.20;93.70
7159;DHT22;63175;52.374;13.132;2024-02-23T09:08:56;11.20;93.90
7159;DHT22;63175;52.374;13.132;2024-02-23T09:11:23;11.30;93.80
7159;DHT22;63175;52.374;13.132;2024-02-23T09:13:50;11.30;93.60
7159;DHT22;63175;52.374;13.132;2024-02-23T09:16:18;11.50;93.10
7159;DHT22;63175;52.374;13.132;2024-02-23T09:18:47;11.60;92.40
7159;DHT22;63175;52.374;13.132;2024-02-23T09:21:14;12.00;92.40
7159;DHT22;63175;52.374;13.132;2024-02-23T09:23:41;12.30;91.30
7159;DHT22;63175;52.374;13.132;2024-02-23T09:26:11;12.30;90.10
7159;DHT22;63175;52.374;13.132;2024-02-23T09:28:38;12.40;90.00
7159;DHT22;63175;52.374;13.132;2024-02-23T09:31:06;12.40;90.30
7159;DHT22;63175;52.374;13.132;2024-02-23T09:33:34;12.40;90.50
7159;DHT22;63175;52.374;13.132;2024-02-23T09:36:01;12.50;90.70
7159;DHT22;63175;52.374;13.132;2024-02-23T09:38:28;12.50;90.80
7159;DHT22;63175;52.374;13.132;2024-02-23T09:40:57;12.30;91.20
7159;DHT22;63175;52.374;13.132;2024-02-23T09:43:25;12.40;91.30
7159;DHT22;63175;52.374;13.132;2024-02-23T09:45:56;12.50;91.50
7159;DHT22;63175;52.374;13.132;2024-02-23T09:48:23;12.70;91.00
7159;DHT22;63175;52.374;13.132;2024-02-23T09:50:52;12.80;90.20
7159;DHT22;63175;52.374;13.132;2024-02-23T09:53:20;12.90;90.20
7159;DHT22;63175;52.374;13.132;2024-02-23T09:55:49;12.90;90.00
7159;DHT22;63175;52.374;13.132;2024-02-23T09:58:17;13.20;88.80
7159;DHT22;63175;52.374;13.132;2024-02-23T10:00:44;13.50;86.70
7159;DHT22;63175;52.374;13.132;2024-02-23T10:03:11;13.70;84.50
7159;DHT22;63175;52.374;13.132;2024-02-23T10:05:38;13.80;81.30
7159;DHT22;63175;52.374;13.132;2024-02-23T10:08:06;13.70;78.40
7159;DHT22;63175;52.374;13.132;2024-02-23T10:10:34;13.70;77.80
7159;DHT22;63175;52.374;13.132;2024-02-23T10:13:01;13.50;76.40
7159;DHT22;63175;52.374;13.132;2024-02-23T10:15:30;13.20;77.20
7159;DHT22;63175;52.374;13.132;2024-02-23T10:17:57;12.80;78.00
7159;DHT22;63175;52.374;13.132;2024-02-23T10:20:24;12.50;79.60
7159;DHT22;63175;52.374;13.132;2024-02-23T10:22:51;12.30;78.60
7159;DHT22;63175;52.374;13.132;2024-02-23T10:25:21;12.00;79.50
7159;DHT22;63175;52.374;13.132;2024-02-23T10:27:48;12.10;81.40
7159;DHT22;63175;52.374;13.132;2024-02-23T10:30:15;12.10;80.40
7159;DHT22;63175;52.374;13.132;2024-02-23T10:32:42;12.20;79.70
7159;DHT22;63175;52.374;13.132;2024-02-23T10:35:13;12.20;79.60
7159;DHT22;63175;52.374;13.132;2024-02-23T10:37:42;12.20;80.10
7159;DHT22;63175;52.374;13.132;2024-02-23T10:40:11;12.40;81.20
7159;DHT22;63175;52.374;13.132;2024-02-23T10:42:43;12.60;80.00
7159;DHT22;63175;52.374;13.132;2024-02-23T10:45:14;12.80;79.20
7159;DHT22;63175;52.374;13.132;2024-02-23T10:47:43;12.80;78.80
7159;DHT22;63175;52.374;13.132;2024-02-23T10:50:10;12.90;77.70
7159;DHT22;63175;52.374;13.132;2024-02-23T10:52:40;12.80;77.20
7159;DHT22;63175;52.374;13.132;2024-02-23T10:55:09;12.90;77.10
7159;DHT22;63175;52.374;13.132;2024-02-23T10:57:36;12.90;76.00
7159;DHT22;63175;52.374;13.132;2024-02-23T11:00:07;12.90;74.90
7159;DHT22;63175;52.374;13.132;2024-02-23T11:02:38;12.80;72.90
7159;DHT22;63175;52.374;13.132;2024-02-23T11:05:06;12.90;73.90
7159;DHT22;63175;52.374;13.132;2024-02-23T11:07:38;13.20;72.60
7159;DHT22;63175;52.374;13.132;2024-02-23T11:10:06;13.30;73.80
7159;DHT22;63175;52.374;13.132;2024-02-23T11:12:35;13.20;71.90
7159;DHT22;63175;52.374;13.132;2024-02-23T11:15:02;13.00;71.70
7159;DHT22;63175;52.374;13.132;2024-02-23T11:17:32;12.80;71.00
7159;DHT22;63175;52.374;13.132;2024-02-23T11:20:03;12.60;71.90
7159;DHT22;63175;52.374;13.132;2024-02-23T11:22:31;12.60;72.90
7159;DHT22;63175;52.374;13.132;2024-02-23T11:25:00;12.60;72.60
7159;DHT22;63175;52.374;13.132;2024-02-23T11:27:31;12.50;71.90
7159;DHT22;63175;52.374;13.132;2024-02-23T11:30:07;12.20;72.20
7159;DHT22;63175;52.374;13.132;2024-02-23T11:32:38;12.20;72.80
7159;DHT22;63175;52.374;13.132;2024-02-23T11:35:07;12.30;73.00
7159;DHT22;63175;52.374;13.132;2024-02-23T11:37:45;12.60;73.90
7159;DHT22;63175;52.374;13.132;2024-02-23T11:40:12;12.70;72.40
7159;DHT22;63175;52.374;13.132;2024-02-23T11:42:40;12.70;71.70
7159;DHT22;63175;52.374;13.132;2024-02-23T11:45:08;12.40;71.90
7159;DHT22;63175;52.374;13.132;2024-02-23T11:47:35;12.40;72.80
7159;DHT22;63175;52.374;13.132;2024-02-23T11:50:06;12.40;73.10
7159;DHT22;63175;52.374;13.132;2024-02-23T11:52:33;12.30;71.30
7159;DHT22;63175;52.374;13.132;2024-02-23T11:55:00;12.10;71.90
7159;DHT22;63175;52.374;13.132;2024-02-23T11:57:27;11.90;72.00
7159;DHT22;63175;52.374;13.132;2024-02-23T11:59:54;11.90;72.30
7159;DHT22;63175;52.374;13.132;2024-02-23T12:02:21;11.80;72.20
7159;DHT22;63175;52.374;13.132;2024-02-23T12:04:48;11.70;72.40
7159;DHT22;63175;52.374;13.132;2024-02-23T12:07:16;11.60;73.50
7159;DHT22;63175;52.374;13.132;2024-02-23T12:09:45;11.60;72.30
7159;DHT22;63175;52.374;13.132;2024-02-23T12:12:12;11.50;73.20
7159;DHT22;63175;52.374;13.132;2024-02-23T12:14:39;11.50;72.60
7159;DHT22;63175;52.374;13.132;2024-02-23T12:17:08;11.50;73.40
7159;DHT22;63175;52.374;13.132;2024-02-23T12:19:37;11.50;74.30
7159;DHT22;63175;52.374;13.132;2024-02-23T12:22:04;11.60;74.60
7159;DHT22;63175;52.374;13.132;2024-02-23T12:24:34;11.50;74.10
7159;DHT22;63175;52.374;13.132;2024-02-23T12:27:01;11.50;74.90
7159;DHT22;63175;52.374;13.132;2024-02-23T12:29:27;11.50;75.20
7159;DHT22;63175;52.374;13.132;2024-02-23T12:32:02;11.50;76.10
7159;DHT22;63175;52.374;13.132;2024-02-23T12:34:29;11.40;76.10
7159;DHT22;63175;52.374;13.132;2024-02-23T12:36:56;11.40;76.00
7159;DHT22;63175;52.374;13.132;2024-02-23T12:39:24;11.40;75.80
7159;DHT22;63175;52.374;13.132;2024-02-23T12:41:53;11.30;75.70
7159;DHT22;63175;52.374;13.132;2024-02-23T12:44:22;11.30;76.10
7159;DHT22;63175;52.374;13.132;2024-02-23T12:46:49;11.30;75.90
7159;DHT22;63175;52.374;13.132;2024-02-23T12:49:16;11.20;76.20
7159;DHT22;63175;52.374;13.132;2024-02-23T12:51:42;11.20;76.60
7159;DHT22;63175;52.374;13.132;2024-02-23T12:54:09;11.10;77.40
7159;DHT22;63175;52.374;13.132;2024-02-23T12:56:36;11.00;77.80
7159;DHT22;63175;52.374;13.132;2024-02-23T12:59:04;11.00;78.70
7159;DHT22;63175;52.374;13.132;2024-02-23T13:01:31;11.00;79.10
7159;DHT22;63175;52.374;13.132;2024-02-23T13:04:02;10.90;79.20
7159;DHT22;63175;52.374;13.132;2024-02-23T13:06:29;10.90;80.00
7159;DHT22;63175;52.374;13.132;2024-02-23T13:08:55;10.90;80.00
7159;DHT22;63175;52.374;13.132;2024-02-23T13:11:22;10.90;80.20
7159;DHT22;63175;52.374;13.132;2024-02-23T13:13:49;10.90;80.60
7159;DHT22;63175;52.374;13.132;2024-02-23T13:16:17;10.80;79.30
7159;DHT22;63175;52.374;13.132;2024-02-23T13:18:45;10.70;79.20
7159;DHT22;63175;52.374;13.132;2024-02-23T13:21:12;10.60;79.60
7159;DHT22;63175;52.374;13.132;2024-02-23T13:23:39;10.60;79.20
7159;DHT22;63175;52.374;13.132;2024-02-23T13:26:08;10.50;78.70
7159;DHT22;63175;52.374;13.132;2024-02-23T13:28:36;10.30;78.30
7159;DHT22;63175;52.374;13.132;2024-02-23T13:31:03;10.20;78.90
7159;DHT22;63175;52.374;13.132;2024-02-23T13:33:31;10.20;80.00
7159;DHT22;63175;52.374;13.132;2024-02-23T13:35:58;10.20;80.10
7159;DHT22;63175;52.374;13.132;2024-02-23T13:38:25;10.20;80.80
7159;DHT22;63175;52.374;13.132;2024-02-23T13:40:52;10.20;81.10
7159;DHT22;63175;52.374;13.132;2024-02-23T13:43:19;10.30;80.60
7159;DHT22;63175;52.374;13.132;2024-02-23T13:45:50;10.30;79.00
7159;DHT22;63175;52.374;13.132;2024-02-23T13:48:17;10.20;77.70
7159;DHT22;63175;52.374;13.132;2024-02-23T13:50:46;10.20;77.90
7159;DHT22;63175;52.374;13.132;2024-02-23T13:53:13;10.20;78.40
7159;DHT22;63175;52.374;13.132;2024-02-23T13:55:40;10.10;77.90
7159;DHT22;63175;52.374;13.132;2024-02-23T13:58:08;10.10;78.10
7159;DHT22;63175;52.374;13.132;2024-02-23T14:00:34;10.10;78.60
7159;DHT22;63175;52.374;13.132;2024-02-23T14:03:01;10.10;79.40
7159;DHT22;63175;52.374;13.132;2024-02-23T14:05:28;10.10;79.20
7159;DHT22;63175;52.374;13.132;2024-02-23T14:07:57;10.00;79.60
7159;DHT22;63175;52.374;13.132;2024-02-23T14:10:24;10.00;80.00
7159;DHT22;63175;52.374;13.132;2024-02-23T14:12:51;10.00;79.50
7159;DHT22;63175;52.374;13.132;2024-02-23T14:15:18;10.10;79.00
7159;DHT22;63175;52.374;13.132;2024-02-23T14:17:44;10.10;79.30
7159;DHT22;63175;52.374;13.132;2024-02-23T14:20:11;10.10;79.40
7159;DHT22;63175;52.374;13.132;2024-02-23T14:22:39;10.10;79.70
7159;DHT22;63175;52.374;13.132;2024-02-23T14:25:07;10.10;80.40
7159;DHT22;63175;52.374;13.132;2024-02-23T14:27:35;10.10;81.10
7159;DHT22;63175;52.374;13.132;2024-02-23T14:30:02;10.00;81.80
7159;DHT22;63175;52.374;13.132;2024-02-23T14:32:29;10.00;81.30
7159;DHT22;63175;52.374;13.132;2024-02-23T14:34:56;10.00;81.80
7159;DHT22;63175;52.374;13.132;2024-02-23T14:37:23;10.00;81.60
7159;DHT22;63175;52.374;13.132;2024-02-23T14:39:50;9.90;83.20
7159;DHT22;63175;52.374;13.132;2024-02-23T14:42:19;9.90;83.60
7159;DHT22;63175;52.374;13.132;2024-02-23T14:44:45;9.90;84.10
7159;DHT22;63175;52.374;13.132;2024-02-23T14:47:12;9.90;84.40
7159;DHT22;63175;52.374;13.132;2024-02-23T14:49:39;9.90;84.70
7159;DHT22;63175;52.374;13.132;2024-02-23T14:52:06;9.80;84.90
7159;DHT22;63175;52.374;13.132;2024-02-23T14:54:34;9.80;85.40
7159;DHT22;63175;52.374;13.132;2024-02-23T14:57:01;9.80;85.90
7159;DHT22;63175;52.374;13.132;2024-02-23T14:59:30;9.80;86.50
7159;DHT22;63175;52.374;13.132;2024-02-23T15:02:01;9.80;86.80
7159;DHT22;63175;52.374;13.132;2024-02-23T15:04:28;9.80;87.50
7159;DHT22;63175;52.374;13.132;2024-02-23T15:06:55;9.80;87.50
7159;DHT22;63175;52.374;13.132;2024-02-23T15:09:22;9.70;88.20
7159;DHT22;63175;52.374;13.132;2024-02-23T15:11:49;9.70;88.80
7159;DHT22;63175;52.374;13.132;2024-02-23T15:14:16;9.70;87.60
7159;DHT22;63175;52.374;13.132;2024-02-23T15:16:44;9.70;87.20
7159;DHT22;63175;52.374;13.132;2024-02-23T15:19:11;9.70;87.10
7159;DHT22;63175;52.374;13.132;2024-02-23T15:21:38;9.60;87.30
7159;DHT22;63175;52.374;13.132;2024-02-23T15:24:06;9.60;87.70
7159;DHT22;63175;52.374;13.132;2024-02-23T15:26:34;9.50;88.30
7159;DHT22;63175;52.374;13.132;2024-02-23T15:29:00;9.50;88.90
7159;DHT22;63175;52.374;13.132;2024-02-23T15:31:28;9.50;89.30
7159;DHT22;63175;52.374;13.132;2024-02-23T15:33:57;9.50;89.10
7159;DHT22;63175;52.374;13.132;2024-02-23T15:36:25;9.50;90.00
7159;DHT22;63175;52.374;13.132;2024-02-23T15:38:52;9.40;88.90